createdAt,value
2023-04-20T00:00:43.151Z,2.88
2023-04-20T00:05:49.277Z,3.27
2023-04-20T00:10:52.175Z,3.17
2023-04-20T00:15:56.320Z,3.50
2023-04-20T00:21:13.753Z,2.80
2023-04-20T00:26:16.979Z,3.58
2023-04-20T00:31:26.399Z,3.03
2023-04-20T00:36:30.008Z,3.40
2023-04-20T00:41:34.664Z,3.00
2023-04-20T00:46:54.811Z,3.78
2023-04-20T00:51:57.822Z,3.30
2023-04-20T00:57:01.244Z,3.30
2023-04-20T01:02:05.500Z,3.10
2023-04-20T01:07:09.790Z,3.08
2023-04-20T01:12:26.852Z,3.27
2023-04-20T01:17:31.058Z,2.90
2023-04-20T01:22:35.297Z,3.30
2023-04-20T01:27:38.123Z,3.38
2023-04-20T01:32:41.650Z,3.63
2023-04-20T01:38:04.008Z,3.67
2023-04-20T01:43:07.174Z,3.20
2023-04-20T01:48:10.036Z,3.07
2023-04-20T01:53:14.623Z,3.27
2023-04-20T01:58:17.622Z,3.00
2023-04-20T02:03:39.346Z,3.22
2023-04-20T02:08:43.609Z,2.92
2023-04-20T02:13:46.545Z,2.78
2023-04-20T02:18:49.514Z,2.92
2023-04-20T02:23:53.705Z,2.75
2023-04-20T02:29:16.043Z,2.75
2023-04-20T02:34:19.002Z,2.43
2023-04-20T02:39:23.223Z,2.40
2023-04-20T02:44:25.952Z,2.40
2023-04-20T02:49:28.870Z,2.05
2023-04-20T02:54:54.325Z,1.93
2023-04-20T02:59:58.483Z,1.90
2023-04-20T03:05:11.171Z,1.92
2023-04-20T03:10:20.467Z,2.00
2023-04-20T03:15:34.551Z,1.60
2023-04-20T03:20:56.274Z,1.90
2023-04-20T03:26:01.582Z,1.55
2023-04-20T03:31:23.185Z,1.80
2023-04-20T03:36:29.286Z,1.90
2023-04-20T03:41:36.888Z,1.55
2023-04-20T03:46:39.695Z,1.40
2023-04-20T03:51:42.495Z,1.70
2023-04-20T03:56:49.649Z,1.57
2023-04-20T04:01:54.226Z,1.57
2023-04-20T04:07:16.201Z,1.42
2023-04-20T04:12:21.620Z,1.80
2023-04-20T04:17:25.611Z,1.80
2023-04-20T04:22:36.282Z,1.70
2023-04-20T04:28:28.898Z,1.60
2023-04-20T04:34:07.320Z,1.30
2023-04-20T04:39:18.450Z,1.57
2023-04-20T04:44:31.852Z,2.17
2023-04-20T04:49:49.293Z,2.15
2023-04-20T04:54:53.294Z,1.77
2023-04-20T04:59:57.702Z,2.80
2023-04-20T05:05:28.321Z,1.98
2023-04-20T05:10:51.597Z,1.65
2023-04-20T05:15:55.803Z,2.00
2023-04-20T05:21:00.239Z,1.73
2023-04-20T05:26:03.161Z,2.20
2023-04-20T05:31:08.076Z,2.08
2023-04-20T05:36:31.358Z,1.58
2023-04-20T05:41:34.264Z,1.98
2023-04-20T05:46:38.565Z,1.60
2023-04-20T05:51:41.364Z,1.80
2023-04-20T05:56:44.218Z,2.03
2023-04-20T06:02:08.801Z,1.60
2023-04-20T06:07:11.661Z,1.80
2023-04-20T06:12:14.514Z,1.90
2023-04-20T06:17:18.757Z,1.77
2023-04-20T06:22:21.732Z,2.50
2023-04-20T06:27:44.888Z,2.33
2023-04-20T06:32:49.114Z,1.77
2023-04-20T06:37:52.085Z,2.17
2023-04-20T06:42:54.994Z,2.17
2023-04-20T06:47:59.303Z,1.65
2023-04-20T06:53:22.530Z,2.08
2023-04-20T06:58:25.424Z,2.20
2023-04-20T07:03:30.307Z,1.83
2023-04-20T07:08:33.292Z,2.17
2023-04-20T07:13:36.254Z,2.17
2023-04-20T07:19:00.800Z,1.80
2023-04-20T07:24:03.737Z,1.75
2023-04-20T07:29:13.821Z,2.25
2023-04-20T07:34:18.273Z,2.20
2023-04-20T07:39:21.473Z,1.88
2023-04-20T07:44:44.578Z,1.88
2023-04-20T07:49:49.116Z,2.05
2023-04-20T07:54:53.684Z,1.90
2023-04-20T07:59:56.562Z,1.98
2023-04-20T08:05:03.429Z,2.00
2023-04-20T08:10:27.054Z,2.75
2023-04-20T08:15:31.557Z,2.30
2023-04-20T08:20:35.965Z,2.65
2023-04-20T08:25:40.046Z,3.60
2023-04-20T08:30:43.106Z,3.38
2023-04-20T08:36:07.862Z,4.18
2023-04-20T08:41:13.168Z,3.55
2023-04-20T08:46:38.603Z,3.53
2023-04-20T08:51:44.726Z,2.97
2023-04-20T08:56:48.781Z,3.10
2023-04-20T09:01:58.334Z,3.28
2023-04-20T09:07:02.788Z,3.65
2023-04-20T09:12:07.842Z,3.45
2023-04-20T09:17:14.288Z,3.03
2023-04-20T09:22:18.735Z,3.53
2023-04-20T09:27:37.681Z,2.83
2023-04-20T09:32:40.584Z,2.83
2023-04-20T09:37:50.352Z,3.43
2023-04-20T09:42:54.558Z,2.70
2023-04-20T09:47:58.666Z,2.85
2023-04-20T09:53:06.751Z,2.67
2023-04-20T09:58:09.547Z,2.90
2023-04-20T10:03:12.757Z,2.95
2023-04-20T10:08:17.005Z,2.67
2023-04-20T10:13:21.828Z,2.83
2023-04-20T10:18:41.286Z,2.87
2023-04-20T10:23:52.095Z,2.63
2023-04-20T10:28:55.063Z,2.75
2023-04-20T10:33:57.980Z,3.03
2023-04-20T10:39:05.006Z,3.33
2023-04-20T10:44:17.884Z,2.70
2023-04-20T10:49:21.638Z,2.77
2023-04-20T10:54:26.064Z,3.00
2023-04-20T10:59:30.256Z,2.80
2023-04-20T11:04:33.714Z,2.80
2023-04-20T11:09:56.818Z,3.00
2023-04-20T11:15:02.699Z,3.17
2023-04-20T11:20:10.885Z,3.27
2023-04-20T11:25:15.078Z,3.60
2023-04-20T11:30:18.112Z,3.78
2023-04-20T11:35:37.747Z,3.20
2023-04-20T11:40:42.044Z,3.33
2023-04-20T11:45:45.102Z,3.07
2023-04-20T11:50:47.965Z,3.53
2023-04-20T11:55:52.153Z,3.35
2023-04-20T12:01:07.024Z,3.00
2023-04-20T12:06:09.947Z,3.80
2023-04-20T12:11:14.260Z,3.10
2023-04-20T12:16:17.215Z,3.63
2023-04-20T12:21:20.066Z,3.83
2023-04-20T12:26:44.447Z,3.67
2023-04-20T12:31:47.360Z,4.47
2023-04-20T12:36:50.296Z,4.57
2023-04-20T12:41:54.470Z,3.80
2023-04-20T12:46:57.234Z,4.30
2023-04-20T12:52:20.547Z,4.70
2023-04-20T12:57:24.692Z,4.65
2023-04-20T13:02:27.794Z,4.15
2023-04-20T13:07:31.640Z,4.10
2023-04-20T13:12:35.933Z,4.55
2023-04-20T13:17:56.121Z,4.35
2023-04-20T13:23:01.538Z,4.45
2023-04-20T13:28:07.192Z,4.50
2023-04-20T13:33:09.987Z,4.93
2023-04-20T13:38:12.819Z,4.80
2023-04-20T13:43:17.971Z,5.32
2023-04-20T13:48:21.785Z,5.07
2023-04-20T13:53:43.025Z,4.97
2023-04-20T13:58:47.247Z,4.95
2023-04-20T14:03:52.206Z,4.68
2023-04-20T14:08:55.092Z,4.97
2023-04-20T14:13:59.336Z,4.63
2023-04-20T14:19:20.144Z,5.07
2023-04-20T14:24:23.040Z,5.10
2023-04-20T14:29:27.200Z,5.27
2023-04-20T14:34:30.006Z,5.30
2023-04-20T14:39:32.877Z,5.97
2023-04-20T14:44:57.061Z,5.10
2023-04-20T14:49:59.993Z,5.25
2023-04-20T14:55:03.218Z,5.25
2023-04-20T15:00:10.498Z,6.22
2023-04-20T15:05:13.600Z,5.20
2023-04-20T15:10:32.658Z,4.97
2023-04-20T15:15:47.593Z,5.40
2023-04-20T15:20:52.314Z,5.40
2023-04-20T15:25:55.162Z,5.88
2023-04-20T15:30:59.425Z,6.05
2023-04-20T15:36:08.791Z,6.13
2023-04-20T15:41:11.644Z,5.27
2023-04-20T15:46:15.980Z,6.05
2023-04-20T15:51:20.112Z,5.38
2023-04-20T15:56:23.327Z,5.97
2023-04-20T16:01:46.810Z,5.78
2023-04-20T16:06:49.919Z,6.20
2023-04-20T16:11:52.840Z,5.20
2023-04-20T16:16:57.039Z,5.60
2023-04-20T16:21:59.931Z,5.27
2023-04-20T16:27:20.824Z,5.97
2023-04-20T16:32:25.080Z,5.97
2023-04-20T16:37:27.984Z,5.32
2023-04-20T16:42:30.759Z,5.05
2023-04-20T16:47:35.105Z,5.00
2023-04-20T16:52:58.112Z,4.32
2023-04-20T16:58:01.018Z,4.70
2023-04-20T17:03:10.263Z,5.50
2023-04-20T17:08:13.223Z,5.30
2023-04-20T17:13:16.145Z,5.50
2023-04-20T17:18:20.771Z,5.53
2023-04-20T17:23:23.584Z,4.73
2023-04-20T17:28:47.357Z,5.10
2023-04-20T17:33:51.563Z,5.47
2023-04-20T17:38:54.395Z,5.80
2023-04-20T17:43:57.240Z,5.47
2023-04-20T17:49:01.407Z,4.82
2023-04-20T17:54:24.545Z,5.77
2023-04-20T17:59:29.140Z,5.70
2023-04-20T18:04:34.817Z,5.47
2023-04-20T18:09:38.973Z,6.43
2023-04-20T18:14:42.475Z,5.80
2023-04-20T18:20:08.642Z,6.43
2023-04-20T18:25:11.709Z,5.80
2023-04-20T18:30:15.033Z,5.60
2023-04-20T18:35:19.477Z,5.73
2023-04-20T18:40:22.364Z,6.22
2023-04-20T18:45:45.564Z,5.67
2023-04-20T18:50:49.640Z,6.10
2023-04-20T18:55:53.616Z,6.18
2023-04-20T19:00:56.465Z,6.53
2023-04-20T19:06:00.701Z,9.80
2023-04-20T19:11:23.804Z,10.10
2023-04-20T19:16:26.650Z,10.50
2023-04-20T19:21:32.065Z,10.43
2023-04-20T19:26:34.909Z,10.17
2023-04-20T19:31:39.991Z,10.63
2023-04-20T19:37:01.909Z,10.00
2023-04-20T19:42:04.933Z,8.38
2023-04-20T19:47:07.796Z,8.52
2023-04-20T19:52:12.016Z,8.35
2023-04-20T19:57:14.918Z,8.63
2023-04-20T20:02:37.725Z,8.37
2023-04-20T20:07:42.408Z,9.10
2023-04-20T20:12:45.956Z,8.63
2023-04-20T20:17:48.738Z,9.40
2023-04-20T20:22:52.973Z,12.38
2023-04-20T20:28:13.324Z,14.52
2023-04-20T20:33:16.093Z,16.60
2023-04-20T20:38:20.965Z,18.13
2023-04-20T20:43:25.156Z,19.65
2023-04-20T20:48:28.053Z,20.67
2023-04-20T20:53:52.927Z,21.58
2023-04-20T20:58:55.685Z,21.03
2023-04-20T21:03:58.757Z,19.37
2023-04-20T21:09:04.252Z,17.00
2023-04-20T21:14:09.249Z,16.33
2023-04-20T21:19:29.530Z,15.40
2023-04-20T21:24:33.690Z,14.77
2023-04-20T21:29:37.502Z,14.65
2023-04-20T21:34:40.258Z,13.55
2023-04-20T21:39:44.448Z,14.75
2023-04-20T21:45:02.757Z,14.20
2023-04-20T21:50:06.252Z,14.07
2023-04-20T21:55:11.090Z,15.40
2023-04-20T22:00:15.486Z,14.70
2023-04-20T22:05:20.664Z,13.97
2023-04-20T22:10:40.752Z,12.40
2023-04-20T22:15:43.892Z,1.30
2023-04-20T22:20:46.797Z,1.53
2023-04-20T22:25:50.972Z,0.70
2023-04-20T22:30:53.736Z,1.65
2023-04-20T22:36:16.993Z,1.55
2023-04-20T22:41:21.328Z,0.87
2023-04-20T22:46:30.110Z,1.27
2023-04-20T22:51:33.317Z,2.15
2023-04-20T22:56:37.476Z,0.90
2023-04-20T23:01:51.429Z,1.20
2023-04-20T23:06:55.951Z,1.00
2023-04-20T23:12:00.355Z,0.88
2023-04-20T23:17:03.146Z,1.40
2023-04-20T23:22:08.834Z,1.70
2023-04-20T23:27:29.803Z,1.13
2023-04-20T23:32:32.588Z,0.77
2023-04-20T23:37:36.500Z,0.70
2023-04-20T23:42:40.707Z,2.15
2023-04-20T23:47:43.692Z,1.30
2023-04-20T23:53:05.616Z,1.42
2023-04-20T23:58:09.803Z,1.50
